Time;durP1;ratioP1;P1;durP2;ratioP2;P2;SDS_P1;SDS_P2;PMS_P1;PMS_P2;Temp;Humidity;BMP_temperature;BMP_pressure;BME280_temperature;BME280_humidity;BME280_pressure;Samples;Min_cycle;Max_cycle;Signal;HPM_P1;HPM_P2
2023/06/09 00:00:36;;;;;;;11.03;6.63;;;;;;;11.41;100.00;101250.91;5055667;28;20162;-86
2023/06/09 00:03:02;;;;;;;8.85;5.72;;;;;;;11.36;100.00;101241.69;5055554;28;20065;-87
2023/06/09 00:05:32;;;;;;;9.45;5.80;;;;;;;11.36;100.00;101242.50;5043305;28;20024;-86
2023/06/09 00:07:58;;;;;;;10.13;6.60;;;;;;;11.35;100.00;101245.34;5039761;28;20135;-87
2023/06/09 00:10:24;;;;;;;15.98;8.10;;;;;;;11.31;100.00;101234.13;5045196;28;20490;-86
2023/06/09 00:12:50;;;;;;;13.32;6.22;;;;;;;11.32;100.00;101234.97;5061804;28;20035;-86
2023/06/09 00:15:15;;;;;;;9.70;6.13;;;;;;;11.26;100.00;101247.13;5042270;28;20029;-86
2023/06/09 00:17:41;;;;;;;11.90;5.57;;;;;;;11.21;100.00;101236.03;5036977;28;20040;-86
2023/06/09 00:20:08;;;;;;;11.82;6.78;;;;;;;11.21;100.00;101233.34;5042446;28;20021;-87
2023/06/09 00:22:35;;;;;;;10.07;5.90;;;;;;;11.18;100.00;101241.69;5045861;28;20036;-86
2023/06/09 00:25:01;;;;;;;11.98;6.97;;;;;;;11.14;100.00;101229.63;5049471;28;20020;-86
2023/06/09 00:27:26;;;;;;;11.70;6.68;;;;;;;11.02;100.00;101223.69;5041384;28;20110;-87
2023/06/09 00:29:51;;;;;;;10.67;6.07;;;;;;;10.99;100.00;101235.53;5052747;28;20029;-87
2023/06/09 00:32:17;;;;;;;11.27;6.50;;;;;;;10.97;100.00;101237.50;5073484;28;20039;-86
2023/06/09 00:34:43;;;;;;;13.37;5.93;;;;;;;10.92;100.00;101242.47;5044385;28;20022;-87
2023/06/09 00:37:11;;;;;;;10.73;6.03;;;;;;;10.94;100.00;101245.84;5055247;28;20107;-86
2023/06/09 00:39:37;;;;;;;12.35;6.47;;;;;;;10.94;100.00;101261.03;5038353;28;20025;-86
2023/06/09 00:42:03;;;;;;;18.50;6.80;;;;;;;10.96;100.00;101265.22;5038675;28;20556;-86
2023/06/09 00:44:28;;;;;;;15.32;7.35;;;;;;;10.86;100.00;101261.75;5042700;28;20099;-86
2023/06/09 00:46:54;;;;;;;9.20;6.53;;;;;;;10.93;100.00;101272.69;5056254;28;20070;-87
2023/06/09 00:49:19;;;;;;;12.60;6.83;;;;;;;10.91;100.00;101269.31;5053928;28;20044;-87
2023/06/09 00:51:45;;;;;;;13.60;6.80;;;;;;;10.90;100.00;101260.47;5043993;28;20376;-86
2023/06/09 00:54:12;;;;;;;11.95;6.50;;;;;;;10.93;100.00;101267.34;5037487;28;20034;-86
2023/06/09 00:56:39;;;;;;;14.80;7.47;;;;;;;10.94;100.00;101275.22;5044820;28;20033;-87
2023/06/09 00:59:10;;;;;;;14.77;6.82;;;;;;;10.95;100.00;101279.56;5045711;28;20028;-87
2023/06/09 01:01:37;;;;;;;13.98;7.00;;;;;;;10.91;100.00;101267.50;5038898;28;20125;-87
2023/06/09 01:04:02;;;;;;;;;;;;;;;11.01;100.00;101291.47;5056157;28;20106;-87
2023/06/09 01:06:48;;;;;;;;;;;;;;;11.01;100.00;101288.81;5059345;28;20329;-86
2023/06/09 01:09:45;;;;;;;16.35;7.78;;;;;;;10.98;100.00;101297.13;5047334;28;20353;-86
2023/06/09 01:12:57;;;;;;;13.98;7.00;;;;;;;10.86;100.00;101287.66;5057614;28;20050;-86
2023/06/09 01:15:28;;;;;;;12.18;6.78;;;;;;;10.85;100.00;101286.81;5035345;28;20045;-87
2023/06/09 01:17:56;;;;;;;16.88;7.82;;;;;;;10.92;100.00;101298.56;5048195;28;20036;-86
2023/06/09 01:20:45;;;;;;;10.55;6.80;;;;;;;10.83;100.00;101286.13;5056668;28;20020;-87
2023/06/09 01:23:18;;;;;;;12.63;7.03;;;;;;;10.78;100.00;101272.38;5058393;28;20039;-86
2023/06/09 01:25:47;;;;;;;11.70;6.40;;;;;;;10.75;100.00;101268.19;5053331;28;20037;-86
2023/06/09 01:28:20;;;;;;;11.90;6.72;;;;;;;10.64;100.00;101247.03;5061550;28;20032;-86
2023/06/09 01:30:46;;;;;;;13.02;7.28;;;;;;;10.64;100.00;101248.88;5053392;28;20087;-86
2023/06/09 01:33:17;;;;;;;10.82;6.00;;;;;;;10.60;100.00;101247.47;5047411;28;20018;-88
2023/06/09 01:35:43;;;;;;;10.95;6.53;;;;;;;10.51;100.00;101236.72;5073242;28;20036;-87
2023/06/09 01:38:08;;;;;;;12.07;6.82;;;;;;;10.53;100.00;101237.38;5055794;28;20077;-86
2023/06/09 01:40:35;;;;;;;12.45;6.20;;;;;;;10.57;100.00;101251.28;5069301;28;20025;-86
2023/06/09 01:43:05;;;;;;;12.05;6.72;;;;;;;10.55;100.00;101254.09;5060387;28;20028;-86
2023/06/09 01:45:31;;;;;;;12.82;6.03;;;;;;;10.57;100.00;101256.63;5041691;28;20028;-86
2023/06/09 01:47:56;;;;;;;13.00;6.18;;;;;;;10.58;100.00;101266.31;5050111;28;20017;-86
2023/06/09 01:50:46;;;;;;;19.77;8.07;;;;;;;10.53;100.00;101258.75;5047127;28;20048;-86
2023/06/09 01:53:34;;;;;;;14.60;5.75;;;;;;;10.51;100.00;101267.91;5027884;28;20041;-86
2023/06/09 01:56:28;;;;;;;8.85;5.38;;;;;;;10.46;100.00;101265.69;5047212;28;20075;-86
2023/06/09 01:58:58;;;;;;;7.85;5.70;;;;;;;10.38;100.00;101244.25;5060763;28;20526;-86
2023/06/09 02:01:25;;;;;;;14.13;6.25;;;;;;;10.32;100.00;101247.50;5039757;28;20063;-86
2023/06/09 02:03:54;;;;;;;18.75;7.32;;;;;;;10.24;100.00;101239.38;5054892;28;20024;-87
2023/06/09 02:06:20;;;;;;;12.85;6.35;;;;;;;10.26;100.00;101253.41;5052568;28;20029;-86
2023/06/09 02:08:47;;;;;;;13.10;6.55;;;;;;;10.19;100.00;101241.66;5049787;28;20027;-86
2023/06/09 02:11:14;;;;;;;12.23;6.32;;;;;;;10.17;100.00;101236.44;5038104;28;20513;-85
2023/06/09 02:13:40;;;;;;;12.40;6.17;;;;;;;10.15;100.00;101241.09;5031937;28;20025;-85
2023/06/09 02:16:06;;;;;;;12.37;6.67;;;;;;;10.15;100.00;101249.09;5071877;28;20032;-86
2023/06/09 02:18:32;;;;;;;;;;;;;;;10.11;100.00;101256.56;5055604;28;20518;-86
2023/06/09 02:20:57;;;;;;;;;;;;;;;10.21;100.00;101277.00;5054020;28;19917;-87
2023/06/09 02:23:23;;;;;;;16.70;7.47;;;;;;;10.17;100.00;101280.97;5049285;28;19908;-86
2023/06/09 02:25:48;;;;;;;14.60;6.43;;;;;;;10.14;100.00;101276.78;5049686;28;20451;-86
2023/06/09 02:28:16;;;;;;;13.97;6.73;;;;;;;10.10;100.00;101273.53;5041019;28;20100;-86
2023/06/09 02:30:42;;;;;;;15.30;7.43;;;;;;;10.10;100.00;101276.22;5035863;28;20067;-87
2023/06/09 02:33:08;;;;;;;12.45;6.03;;;;;;;10.07;100.00;101270.34;5038834;28;20031;-86
2023/06/09 02:35:33;;;;;;;14.93;7.07;;;;;;;10.04;100.00;101268.78;5039638;28;20131;-87
2023/06/09 02:38:04;;;;;;;14.30;8.63;;;;;;;10.11;100.00;101280.59;5044964;28;20437;-86
2023/06/09 02:40:31;;;;;;;14.23;7.25;;;;;;;10.19;100.00;101287.00;5036183;28;20025;-87
2023/06/09 02:42:56;;;;;;;16.73;7.97;;;;;;;10.12;100.00;101292.09;5052389;28;20454;-87
2023/06/09 02:45:22;;;;;;;14.33;7.40;;;;;;;10.22;100.00;101305.38;5038514;28;20121;-86
2023/06/09 02:47:48;;;;;;;19.65;7.05;;;;;;;10.26;100.00;101307.63;5061861;22;20103;-78
2023/06/09 02:50:13;;;;;;;21.50;8.40;;;;;;;10.26;100.00;101312.13;5057528;28;20037;-77
2023/06/09 02:52:39;;;;;;;14.75;7.85;;;;;;;10.15;100.00;101305.97;5010855;28;20026;-77
2023/06/09 02:55:06;;;;;;;;;;;;;;;10.15;100.00;101310.47;5025203;28;20132;-79
2023/06/09 02:57:35;;;;;;;15.60;7.30;;;;;;;10.22;100.00;101303.56;5024838;28;19916;-78
2023/06/09 03:00:03;;;;;;;15.07;7.53;;;;;;;10.27;100.00;101325.28;5021631;28;20738;-78
2023/06/09 03:02:28;;;;;;;17.25;7.32;;;;;;;10.21;100.00;101319.69;5025270;28;20017;-77
2023/06/09 03:04:54;;;;;;;16.20;7.40;;;;;;;10.16;100.00;101309.50;5027256;28;20124;-78
2023/06/09 03:07:20;;;;;;;17.20;7.33;;;;;;;10.16;100.00;101298.81;5022056;28;20030;-78
2023/06/09 03:09:46;;;;;;;15.20;7.00;;;;;;;10.20;100.00;101307.34;5013123;28;20280;-77
2023/06/09 03:12:11;;;;;;;15.50;6.20;;;;;;;10.17;100.00;101299.66;5004890;28;20022;-77
2023/06/09 03:14:38;;;;;;;14.07;6.30;;;;;;;10.12;100.00;101306.25;5021303;28;20402;-78
2023/06/09 03:17:05;;;;;;;19.60;8.02;;;;;;;10.23;100.00;101326.59;5016102;28;20117;-78
2023/06/09 03:19:31;;;;;;;17.55;7.90;;;;;;;10.35;100.00;101348.66;5017143;28;20037;-77
2023/06/09 03:22:03;;;;;;;18.05;7.70;;;;;;;10.28;100.00;101337.72;5002846;28;20096;-77
2023/06/09 03:24:30;;;;;;;12.65;7.03;;;;;;;10.23;100.00;101339.94;5021555;28;20021;-78
2023/06/09 03:26:56;;;;;;;12.57;6.88;;;;;;;10.18;100.00;101320.84;5010507;28;20021;-78
2023/06/09 03:29:22;;;;;;;19.88;8.18;;;;;;;10.27;100.00;101327.13;5007936;28;20712;-78
2023/06/09 03:31:48;;;;;;;17.97;8.10;;;;;;;10.48;100.00;101338.44;5020665;28;20030;-78
2023/06/09 03:34:13;;;;;;;14.87;7.57;;;;;;;10.43;100.00;101345.22;5019760;28;20518;-77
2023/06/09 03:36:39;;;;;;;17.17;7.60;;;;;;;10.30;100.00;101332.19;5010794;28;20071;-77
2023/06/09 03:39:06;;;;;;;10.77;5.95;;;;;;;10.30;100.00;101319.72;5015967;28;20033;-78
2023/06/09 03:41:31;;;;;;;13.18;6.85;;;;;;;10.33;100.00;101324.75;5012112;28;20021;-78
2023/06/09 03:43:58;;;;;;;19.33;8.68;;;;;;;10.43;100.00;101327.38;5006507;28;20030;-78
2023/06/09 03:46:24;;;;;;;19.55;7.25;;;;;;;10.59;100.00;101323.25;5011490;28;20470;-78
2023/06/09 03:48:52;;;;;;;;;;;;;;;10.90;100.00;101362.00;5004365;28;20095;-78
2023/06/09 03:51:19;;;;;;;15.80;7.20;;;;;;;10.93;100.00;101361.72;5022899;28;19909;-78
2023/06/09 03:53:45;;;;;;;11.35;7.25;;;;;;;10.99;100.00;101354.91;5010634;28;20040;-78
2023/06/09 03:56:11;;;;;;;16.15;7.47;;;;;;;11.08;100.00;101347.84;4998283;28;20420;-77
2023/06/09 03:58:37;;;;;;;;;;;;;;;11.15;100.00;101344.41;5019943;28;20037;-78
2023/06/09 04:01:02;;;;;;;16.00;6.57;;;;;;;11.27;100.00;101341.50;5009446;28;19999;-77
2023/06/09 04:03:30;;;;;;;18.98;7.75;;;;;;;11.40;100.00;101348.16;5008643;28;20041;-78
2023/06/09 04:05:55;;;;;;;27.25;10.10;;;;;;;11.82;100.00;101381.41;5009911;28;20032;-77
2023/06/09 04:08:21;;;;;;;26.67;10.77;;;;;;;11.93;100.00;101399.09;5023699;28;20805;-77
2023/06/09 04:10:46;;;;;;;26.47;9.93;;;;;;;12.07;100.00;101405.72;5002343;28;20685;-78
2023/06/09 04:13:11;;;;;;;20.57;9.43;;;;;;;12.15;100.00;101403.97;5001862;28;20052;-78
2023/06/09 04:15:37;;;;;;;20.20;9.65;;;;;;;12.23;100.00;101401.31;5023515;28;20029;-77
2023/06/09 04:18:03;;;;;;;18.77;8.00;;;;;;;12.29;100.00;101399.00;5017887;28;20524;-77
2023/06/09 04:20:31;;;;;;;25.73;9.85;;;;;;;12.35;100.00;101382.31;4990177;28;20021;-79
2023/06/09 04:22:58;;;;;;;21.15;8.68;;;;;;;12.45;100.00;101393.75;5011412;28;20037;-78
2023/06/09 04:25:27;;;;;;;26.30;9.40;;;;;;;12.46;100.00;101390.09;5015127;28;20060;-77
2023/06/09 04:27:56;;;;;;;17.38;8.63;;;;;;;12.63;100.00;101402.56;5018329;28;20146;-78
2023/06/09 04:30:25;;;;;;;20.17;8.85;;;;;;;12.74;100.00;101395.25;5011116;28;20022;-78
2023/06/09 04:32:55;;;;;;;19.60;9.13;;;;;;;12.80;100.00;101400.78;5006412;28;20041;-78
2023/06/09 04:35:22;;;;;;;26.20;9.40;;;;;;;12.93;100.00;101395.00;5020266;28;20149;-78
2023/06/09 04:37:51;;;;;;;22.88;9.93;;;;;;;12.96;100.00;101389.28;5002989;28;20020;-77
2023/06/09 04:40:29;;;;;;;22.38;8.90;;;;;;;13.08;100.00;101385.31;5023138;28;20056;-78
2023/06/09 04:42:57;;;;;;;12.93;7.80;;;;;;;13.16;100.00;101383.66;4998850;28;20033;-78
2023/06/09 04:45:27;;;;;;;18.27;8.95;;;;;;;13.27;100.00;101377.97;5020970;28;20021;-78
2023/06/09 04:47:59;;;;;;;23.55;9.05;;;;;;;13.38;100.00;101376.88;5018215;28;20112;-78
2023/06/09 04:50:33;;;;;;;22.20;8.68;;;;;;;13.51;100.00;101372.69;5014648;28;20029;-79
2023/06/09 04:53:03;;;;;;;19.90;7.68;;;;;;;13.65;100.00;101360.47;5013802;28;20557;-78
2023/06/09 04:55:31;;;;;;;21.23;8.63;;;;;;;13.66;100.00;101355.94;4994683;28;20053;-78
2023/06/09 04:57:57;;;;;;;24.02;8.45;;;;;;;13.87;100.00;101356.25;4997930;28;20121;-78
2023/06/09 05:00:26;;;;;;;15.75;7.00;;;;;;;14.12;100.00;101350.84;4994840;28;20112;-78
2023/06/09 05:02:53;;;;;;;18.20;7.43;;;;;;;14.06;100.00;101325.50;5002564;28;20487;-78
2023/06/09 05:05:19;;;;;;;21.45;8.38;;;;;;;14.24;100.00;101330.69;5022202;28;20379;-78
2023/06/09 05:07:45;;;;;;;18.63;7.90;;;;;;;14.41;100.00;101331.47;4992809;28;20025;-78
2023/06/09 05:10:11;;;;;;;18.77;7.70;;;;;;;14.46;100.00;101314.81;4993574;28;20981;-78
2023/06/09 05:12:37;;;;;;;14.13;7.82;;;;;;;14.74;100.00;101317.91;5009709;28;20061;-78
2023/06/09 05:15:03;;;;;;;16.95;6.57;;;;;;;15.06;100.00;101319.59;5021945;28;20034;-78
2023/06/09 05:17:30;;;;;;;;;;;;;;;15.38;100.00;101314.97;5007056;28;20029;-78
2023/06/09 05:19:55;;;;;;;11.35;6.53;;;;;;;15.53;100.00;101306.97;5015116;28;20000;-77
2023/06/09 05:22:21;;;;;;;18.42;6.90;;;;;;;15.76;100.00;101290.81;5015769;28;20024;-78
2023/06/09 05:24:46;;;;;;;16.83;7.63;;;;;;;15.86;100.00;101275.22;5008193;28;20029;-78
2023/06/09 05:27:12;;;;;;;10.33;5.80;;;;;;;16.25;100.00;101276.81;5023754;28;20026;-78
2023/06/09 05:29:38;;;;;;;16.25;7.07;;;;;;;16.38;100.00;101241.09;5020714;28;20033;-78
2023/06/09 05:32:04;;;;;;;11.10;5.30;;;;;;;16.80;100.00;101231.44;5018237;28;20487;-78
2023/06/09 05:34:30;;;;;;;16.90;6.32;;;;;;;17.21;100.00;101198.44;5023790;28;20037;-77
2023/06/09 05:36:57;;;;;;;18.17;6.35;;;;;;;17.63;100.00;101148.88;5012399;28;20069;-78
2023/06/09 05:39:22;;;;;;;;;;;;;;;17.82;100.00;101084.41;5022793;28;20029;-79
2023/06/09 05:41:48;;;;;;;;;;;;;;;18.41;100.00;101040.47;5018783;28;20559;-78
2023/06/09 05:44:13;;;;;;;14.17;6.27;;;;;;;18.60;100.00;100971.19;5027379;28;19917;-78
2023/06/09 05:46:38;;;;;;;17.83;6.30;;;;;;;19.16;100.00;100894.91;5018817;28;20120;-78
2023/06/09 05:49:04;;;;;;;11.03;5.53;;;;;;;19.47;100.00;100746.25;5016283;28;20029;-77
2023/06/09 05:51:29;;;;;;;14.55;6.75;;;;;;;20.05;100.00;100710.69;5011784;28;20049;-77
2023/06/09 05:53:55;;;;;;;17.57;5.83;;;;;;;20.24;100.00;100670.84;5001631;28;20487;-77
2023/06/09 05:56:22;;;;;;;15.07;6.23;;;;;;;20.83;100.00;100595.13;5028062;28;20021;-77
2023/06/09 05:58:47;;;;;;;13.07;5.70;;;;;;;20.47;100.00;100531.84;5021590;28;20414;-77
2023/06/09 06:01:16;;;;;;;10.20;5.65;;;;;;;21.23;100.00;100637.88;5012776;28;20030;-77
2023/06/09 06:03:42;;;;;;;20.27;6.30;;;;;;;21.90;100.00;100566.84;4999046;28;20971;-77
2023/06/09 06:06:08;;;;;;;;;;;;;;;22.65;100.00;100510.53;5028262;28;20022;-77
2023/06/09 06:08:34;;;;;;;11.13;5.70;;;;;;;23.09;100.00;100443.41;5011488;28;19928;-77
2023/06/09 06:11:00;;;;;;;10.93;5.55;;;;;;;23.16;100.00;100375.16;5023509;28;20029;-77
2023/06/09 06:13:44;;;;;;;12.10;5.95;;;;;;;23.09;100.00;100405.31;5023279;28;20072;-78
2023/06/09 06:16:10;;;;;;;16.88;5.88;;;;;;;23.15;99.46;100330.75;5026948;28;20072;-77
2023/06/09 06:18:35;;;;;;;12.85;5.45;;;;;;;23.03;97.36;100283.81;5009197;28;20045;-77
2023/06/09 06:21:01;;;;;;;9.73;5.65;;;;;;;23.36;96.10;100371.81;5013065;28;20041;-77
2023/06/09 06:23:26;;;;;;;11.05;5.63;;;;;;;23.84;93.88;100408.31;5015178;28;20056;-77
2023/06/09 06:25:52;;;;;;;14.02;5.80;;;;;;;23.77;92.34;100372.25;5019084;28;20178;-76
2023/06/09 06:28:19;;;;;;;11.63;5.65;;;;;;;23.39;91.53;100328.56;5023524;28;20057;-77
2023/06/09 06:30:44;;;;;;;10.27;6.10;;;;;;;23.89;90.25;100419.25;5017725;28;20033;-78
2023/06/09 06:33:09;;;;;;;17.93;7.00;;;;;;;23.40;88.37;100264.00;5022357;28;20605;-77
2023/06/09 06:35:35;;;;;;;13.93;5.70;;;;;;;23.13;89.94;100406.44;5024085;28;20357;-77
2023/06/09 06:38:01;;;;;;;12.03;5.40;;;;;;;23.41;90.12;100535.31;5022455;28;20025;-78
2023/06/09 06:40:27;;;;;;;11.52;6.00;;;;;;;23.20;89.35;100470.75;4999303;28;20458;-78
2023/06/09 06:42:52;;;;;;;13.85;5.30;;;;;;;23.88;89.01;100635.72;4997283;28;20125;-77
2023/06/09 06:45:37;;;;;;;11.32;6.03;;;;;;;24.17;87.67;100613.66;5015176;28;20133;-78
2023/06/09 06:48:02;;;;;;;12.37;5.30;;;;;;;24.78;85.81;100622.47;5015725;28;20120;-78
2023/06/09 06:50:27;;;;;;;14.47;7.63;;;;;;;24.70;82.74;100478.28;4998017;28;20276;-79
2023/06/09 06:52:53;;;;;;;10.13;5.15;;;;;;;24.22;83.65;100499.16;5012355;28;20521;-77
2023/06/09 06:55:21;;;;;;;17.23;5.95;;;;;;;25.05;81.77;100550.56;4997660;28;20404;-78
2023/06/09 06:57:46;;;;;;;15.70;7.05;;;;;;;25.06;79.73;100410.22;4996568;28;20034;-77
2023/06/09 07:00:14;;;;;;;14.85;5.63;;;;;;;24.63;80.66;100462.16;5026917;28;20072;-77
2023/06/09 07:02:41;;;;;;;12.18;6.50;;;;;;;24.93;78.74;100411.50;5012433;28;20045;-77
2023/06/09 07:05:07;;;;;;;13.02;6.85;;;;;;;25.15;77.62;100377.75;5014578;28;20029;-77
2023/06/09 07:07:32;;;;;;;14.52;5.88;;;;;;;25.65;75.98;100412.59;4997366;28;20038;-78
2023/06/09 07:09:58;;;;;;;11.95;5.78;;;;;;;25.97;75.25;100440.84;5023350;28;20048;-78
2023/06/09 07:12:24;;;;;;;12.02;5.60;;;;;;;25.84;72.83;100240.63;5016768;28;20041;-78
2023/06/09 07:14:50;;;;;;;11.80;4.63;;;;;;;26.23;72.65;100341.25;5015314;28;20040;-78
2023/06/09 07:17:15;;;;;;;9.98;4.53;;;;;;;25.59;72.07;100224.25;5016220;28;21024;-78
2023/06/09 07:19:40;;;;;;;11.60;5.10;;;;;;;25.13;70.03;99918.38;5012045;28;20420;-79
2023/06/09 07:22:06;;;;;;;10.02;4.82;;;;;;;25.49;70.08;100105.66;5008198;28;20321;-77
2023/06/09 07:24:31;;;;;;;9.70;5.18;;;;;;;25.33;68.74;99999.44;5015837;28;20030;-77
2023/06/09 07:26:57;;;;;;;9.82;4.70;;;;;;;25.50;68.47;100065.50;5034834;28;20038;-77
2023/06/09 07:29:22;;;;;;;11.30;4.47;;;;;;;25.54;66.76;99962.72;4996524;28;20025;-78
2023/06/09 07:31:47;;;;;;;11.02;4.50;;;;;;;25.77;66.07;99982.28;5013826;28;20037;-78
2023/06/09 07:34:14;;;;;;;14.55;4.95;;;;;;;25.95;66.49;100110.19;5025853;28;20566;-78
2023/06/09 07:36:40;;;;;;;11.30;5.18;;;;;;;25.51;62.75;99619.00;4997568;28;20411;-78
2023/06/09 07:39:06;;;;;;;8.73;4.00;;;;;;;26.25;63.76;100008.00;5015520;28;20017;-78
2023/06/09 07:41:31;;;;;;;8.32;4.32;;;;;;;26.64;62.41;99924.22;5013134;28;20038;-77
2023/06/09 07:43:57;;;;;;;9.60;5.10;;;;;;;26.82;61.10;99849.56;5013755;28;20531;-78
2023/06/09 07:46:23;;;;;;;8.02;5.20;;;;;;;26.96;60.57;99866.09;5026193;28;20048;-79
2023/06/09 07:48:49;;;;;;;10.30;4.32;;;;;;;26.56;61.17;99859.16;5001794;28;20030;-78
2023/06/09 07:51:16;;;;;;;;;;;;;;;26.87;60.17;99862.38;5009441;28;20426;-77
2023/06/09 07:53:42;;;;;;;10.02;4.03;;;;;;;26.62;60.97;99918.22;4998645;28;19917;-78
2023/06/09 07:56:07;;;;;;;9.98;4.47;;;;;;;25.98;58.72;99499.81;5017730;28;20064;-79
2023/06/09 07:58:33;;;;;;;7.30;4.97;;;;;;;25.70;60.34;99772.94;5014724;28;20085;-77
2023/06/09 08:00:58;;;;;;;9.38;4.60;;;;;;;25.77;59.04;99616.78;5018242;28;20339;-79
2023/06/09 08:03:23;;;;;;;13.68;4.28;;;;;;;26.24;58.38;99650.72;4998541;28;20367;-78
2023/06/09 08:05:49;;;;;;;9.93;4.68;;;;;;;26.40;57.23;99588.41;5012713;28;20391;-77
2023/06/09 08:08:15;;;;;;;6.40;4.32;;;;;;;26.42;57.19;99610.00;5011259;28;20479;-79
2023/06/09 08:10:40;;;;;;;7.75;4.50;;;;;;;26.30;55.90;99490.88;5013753;28;20723;-78
2023/06/09 08:13:06;;;;;;;8.57;4.43;;;;;;;26.44;54.07;99315.81;5015341;28;20105;-77
2023/06/09 08:15:32;;;;;;;10.73;4.97;;;;;;;26.62;52.69;99204.66;4999165;28;20046;-77
2023/06/09 08:17:58;;;;;;;7.97;4.03;;;;;;;26.69;51.61;99183.16;4999233;28;20030;-77
2023/06/09 08:20:23;;;;;;;8.25;5.00;;;;;;;26.67;51.21;99127.09;5014073;28;20513;-77
2023/06/09 08:22:49;;;;;;;7.55;5.22;;;;;;;26.47;49.89;98860.19;5013882;28;20034;-79
2023/06/09 08:25:14;;;;;;;8.93;4.70;;;;;;;25.67;49.34;98641.31;5010347;28;20052;-77
2023/06/09 08:27:39;;;;;;;6.60;3.72;;;;;;;24.86;50.17;98625.78;5015060;28;20028;-78
2023/06/09 08:30:07;;;;;;;7.05;4.35;;;;;;;25.15;49.67;98726.41;5019386;28;20044;-78
2023/06/09 08:32:32;;;;;;;7.72;4.15;;;;;;;24.38;49.99;98550.75;5015512;28;20471;-78
2023/06/09 08:34:59;;;;;;;11.10;5.22;;;;;;;24.29;50.44;98653.47;5035051;28;20116;-80
2023/06/09 08:37:25;;;;;;;6.57;3.92;;;;;;;24.46;49.32;98635.66;5021122;28;20026;-78
2023/06/09 08:39:50;;;;;;;8.07;4.20;;;;;;;24.28;49.43;98580.13;5012729;28;20041;-77
2023/06/09 08:42:23;;;;;;;6.13;3.87;;;;;;;25.09;51.25;99159.00;5025285;28;20044;-77
2023/06/09 08:44:50;;;;;;;11.07;4.68;;;;;;;25.88;50.78;99342.22;5010571;28;20034;-77
2023/06/09 08:47:20;;;;;;;6.95;4.60;;;;;;;26.50;49.67;99344.72;5024794;28;20025;-76
2023/06/09 08:49:48;;;;;;;7.82;4.60;;;;;;;25.95;46.12;98592.75;5012805;28;20386;-77
2023/06/09 08:52:14;;;;;;;6.05;4.13;;;;;;;26.88;45.34;98861.88;4999788;28;20044;-75
2023/06/09 08:54:40;;;;;;;5.95;4.13;;;;;;;27.38;47.57;99378.63;5015637;28;20033;-77
2023/06/09 08:57:06;;;;;;;6.70;4.03;;;;;;;27.49;44.13;98920.41;5027003;28;20136;-78
2023/06/09 08:59:33;;;;;;;5.55;4.57;;;;;;;25.75;43.39;98175.19;5024822;28;20038;-76
2023/06/09 09:02:01;;;;;;;7.65;3.90;;;;;;;25.20;42.26;97937.28;5002659;28;20083;-77
2023/06/09 09:04:26;;;;;;;5.75;3.90;;;;;;;26.36;43.76;98649.00;5004511;28;20078;-76
2023/06/09 09:06:53;;;;;;;7.13;3.70;;;;;;;27.55;41.02;98641.50;5011300;28;20449;-77
2023/06/09 09:09:18;;;;;;;7.60;4.30;;;;;;;27.23;40.11;98218.31;5012194;28;20284;-78
2023/06/09 09:11:45;;;;;;;8.33;4.10;;;;;;;28.16;41.28;98833.34;4994853;28;20049;-78
2023/06/09 09:14:12;;;;;;;5.72;3.35;;;;;;;27.72;38.15;98082.31;5017264;28;20288;-77
2023/06/09 09:16:38;;;;;;;7.28;3.95;;;;;;;26.68;39.09;97924.59;5009543;28;20021;-77
2023/06/09 09:19:04;;;;;;;8.40;3.90;;;;;;;26.31;40.64;98165.06;5006255;28;20596;-77
2023/06/09 09:21:29;;;;;;;5.63;3.83;;;;;;;26.84;40.42;98336.09;5013762;28;20022;-79
2023/06/09 09:24:01;;;;;;;7.13;3.75;;;;;;;25.71;41.72;98106.75;5015187;28;20049;-77
2023/06/09 09:26:30;;;;;;;7.30;3.92;;;;;;;27.24;42.39;98866.34;5010211;28;20571;-76
2023/06/09 09:29:00;;;;;;;10.40;4.07;;;;;;;27.97;40.17;98781.59;5010774;28;20572;-78
2023/06/09 09:31:33;;;;;;;7.70;3.63;;;;;;;28.57;39.30;98830.03;4994058;28;20022;-76
2023/06/09 09:34:02;;;;;;;5.60;3.55;;;;;;;27.25;39.07;98257.13;4993471;28;20555;-78
2023/06/09 09:36:28;;;;;;;5.13;3.47;;;;;;;26.56;39.95;98181.72;5008799;28;20029;-77
2023/06/09 09:39:02;;;;;;;8.15;4.10;;;;;;;27.16;40.47;98589.34;4995257;28;20290;-79
2023/06/09 09:41:29;;;;;;;6.82;3.97;;;;;;;26.90;39.44;98153.31;5026066;28;20491;-76
2023/06/09 09:43:56;;;;;;;6.95;4.03;;;;;;;26.38;39.24;98055.94;4998389;28;20487;-78
2023/06/09 09:46:22;;;;;;;7.93;4.70;;;;;;;26.60;40.35;98330.38;5009307;28;20037;-78
2023/06/09 09:48:49;;;;;;;;;;;;;;;27.97;38.22;98479.94;5027543;28;20165;-79
2023/06/09 09:51:15;;;;;;;8.02;3.58;;;;;;;28.60;37.98;98670.16;5022949;28;19989;-77
2023/06/09 09:53:45;;;;;;;5.90;3.72;;;;;;;28.95;37.27;98628.72;5010179;28;20030;-77
2023/06/09 09:56:13;;;;;;;9.13;4.32;;;;;;;27.69;35.87;97817.13;4993715;28;20030;-77
2023/06/09 09:58:41;;;;;;;5.65;3.80;;;;;;;28.05;36.50;98102.56;4994862;28;20398;-77
2023/06/09 10:01:10;;;;;;;8.15;3.70;;;;;;;27.94;37.62;98294.97;5013038;28;20043;-76
2023/06/09 10:03:38;;;;;;;6.65;3.92;;;;;;;28.55;36.08;98351.19;5013682;28;20017;-79
2023/06/09 10:06:06;;;;;;;8.27;3.58;;;;;;;28.51;35.00;98042.91;5021785;28;20042;-78
2023/06/09 10:08:32;;;;;;;7.63;4.38;;;;;;;28.07;36.60;98219.00;4995478;28;20479;-78
2023/06/09 10:10:59;;;;;;;9.18;4.25;;;;;;;27.10;37.06;97891.59;5009586;28;20040;-78
2023/06/09 10:13:26;;;;;;;11.85;6.45;;;;;;;27.12;37.02;97889.31;4997690;28;20072;-76
2023/06/09 10:15:53;;;;;;;10.50;4.53;;;;;;;28.17;36.45;98320.06;5015120;28;20045;-76
2023/06/09 10:18:19;;;;;;;8.20;3.47;;;;;;;29.01;36.32;98582.63;5000069;28;20021;-78
2023/06/09 10:20:45;;;;;;;8.18;3.90;;;;;;;29.77;35.63;98671.31;5014316;28;20038;-78
2023/06/09 10:23:10;;;;;;;;;;;;;;;29.27;33.82;98104.31;5008417;28;20123;-75
2023/06/09 10:25:37;;;;;;;8.13;4.47;;;;;;;28.24;36.40;98247.38;5015749;28;20334;-77
2023/06/09 10:28:03;;;;;;;6.97;3.88;;;;;;;28.30;35.17;97994.44;5022487;28;20048;-78
2023/06/09 10:30:29;;;;;;;9.57;4.43;;;;;;;29.29;35.31;98445.50;5014623;28;20395;-78
2023/06/09 10:33:04;;;;;;;8.23;4.18;;;;;;;29.35;34.49;98281.16;5013649;28;20042;-78
2023/06/09 10:35:32;;;;;;;9.68;3.85;;;;;;;28.78;34.26;97989.97;5018029;28;20029;-77
2023/06/09 10:37:59;;;;;;;7.78;4.25;;;;;;;27.38;34.75;97471.88;5022715;28;20421;-76
2023/06/09 10:40:43;;;;;;;7.65;3.70;;;;;;;27.50;35.61;97932.03;5014192;28;20037;-78
2023/06/09 10:43:29;;;;;;;6.63;4.03;;;;;;;27.29;35.68;97770.56;5019382;28;20034;-77
2023/06/09 10:45:56;;;;;;;9.00;4.05;;;;;;;28.51;35.28;98292.63;5001084;28;20041;-79
2023/06/09 10:48:42;;;;;;;8.40;4.05;;;;;;;28.76;34.55;98241.28;5026793;28;20036;-76
2023/06/09 10:51:26;;;;;;;9.27;4.00;;;;;;;29.45;33.89;98314.47;5018351;28;20359;-78
2023/06/09 10:54:07;;;;;;;6.85;4.35;;;;;;;28.03;34.62;97797.78;5015851;28;20401;-76
2023/06/09 10:56:36;;;;;;;5.93;3.53;;;;;;;27.62;32.93;97356.59;5014693;28;20034;-78
2023/06/09 10:59:03;;;;;;;11.43;4.25;;;;;;;28.57;34.07;98063.47;5017907;28;20076;-77
2023/06/09 11:01:28;;;;;;;6.50;4.38;;;;;;;28.36;34.19;97976.59;5014649;28;20033;-78
2023/06/09 11:03:53;;;;;;;8.57;4.40;;;;;;;27.33;35.12;97646.28;5000050;28;20084;-78
2023/06/09 11:06:20;;;;;;;5.70;3.90;;;;;;;28.28;35.61;98297.69;5016302;28;20041;-78
2023/06/09 11:09:04;;;;;;;;;;;;;;;28.09;36.72;98356.59;5015160;28;20026;-78
2023/06/09 11:11:53;;;;;;;8.98;4.20;;;;;;;28.79;38.53;98976.44;5020463;28;19920;-79
2023/06/09 11:14:44;;;;;;;6.88;4.90;;;;;;;29.22;41.55;99662.53;5024989;28;20390;-78
2023/06/09 11:17:17;;;;;;;8.38;5.20;;;;;;;29.87;42.70;99963.75;4999093;28;20045;-76
2023/06/09 11:19:43;;;;;;;7.82;5.03;;;;;;;29.78;43.24;99897.69;4998249;28;20045;-76
2023/06/09 11:22:12;;;;;;;9.43;4.95;;;;;;;30.27;42.96;100008.81;5010359;28;20017;-78
2023/06/09 11:24:48;;;;;;;7.28;5.35;;;;;;;30.35;42.51;99899.06;5016015;28;20182;-77